createdAt,value
2019-03-15T00:02:51.691Z,11.50
2019-03-15T00:08:00.034Z,11.50
2019-03-15T00:13:07.566Z,11.50
2019-03-15T00:18:15.121Z,11.70
2019-03-15T00:23:23.010Z,11.50
2019-03-15T00:28:30.503Z,11.10
2019-03-15T00:33:36.762Z,11.30
2019-03-15T00:38:43.552Z,11.00
2019-03-15T00:43:49.868Z,10.90
2019-03-15T00:48:57.653Z,10.90
2019-03-15T00:54:03.646Z,10.60
2019-03-15T00:59:09.642Z,10.50
2019-03-15T01:04:17.271Z,10.20
2019-03-15T01:09:24.032Z,10.70
2019-03-15T01:14:29.976Z,9.80
2019-03-15T01:19:37.650Z,10.10
2019-03-15T01:24:43.611Z,9.90
2019-03-15T01:29:51.045Z,9.60
2019-03-15T01:34:58.563Z,9.50
2019-03-15T01:40:05.765Z,9.60
2019-03-15T01:45:11.757Z,9.50
2019-03-15T01:50:19.304Z,9.10
2019-03-15T01:55:26.356Z,9.20
2019-03-15T02:00:33.813Z,9.50
2019-03-15T02:05:40.803Z,9.50
2019-03-15T02:10:48.565Z,9.40
2019-03-15T02:15:54.442Z,9.20
2019-03-15T02:21:00.808Z,9.20
2019-03-15T02:26:06.968Z,8.90
2019-03-15T02:31:13.726Z,8.80
2019-03-15T02:36:20.289Z,9.20
2019-03-15T02:41:26.860Z,9.10
2019-03-15T02:46:33.881Z,9.10
2019-03-15T02:51:41.677Z,9.20
2019-03-15T02:56:47.836Z,9.20
2019-03-15T03:01:54.283Z,9.30
2019-03-15T03:07:01.031Z,9.20
2019-03-15T03:12:07.129Z,9.30
2019-03-15T03:17:14.031Z,9.30
2019-03-15T03:22:21.629Z,9.50
2019-03-15T03:27:29.367Z,9.90
2019-03-15T03:32:36.551Z,10.20
2019-03-15T03:37:45.164Z,10.40
2019-03-15T03:42:53.263Z,10.50
2019-03-15T03:48:00.750Z,10.60
2019-03-15T03:53:08.439Z,10.60
2019-03-15T03:58:14.425Z,10.50
2019-03-15T04:03:21.517Z,10.10
2019-03-15T04:08:29.014Z,10.00
2019-03-15T04:13:34.966Z,10.00
2019-03-15T04:18:41.347Z,10.00
2019-03-15T04:23:47.684Z,10.10
2019-03-15T04:28:57.076Z,10.10
2019-03-15T04:34:03.775Z,10.10
2019-03-15T04:39:13.845Z,10.10
2019-03-15T04:44:20.051Z,10.00
2019-03-15T04:49:27.179Z,10.10
2019-03-15T04:54:34.068Z,10.30
2019-03-15T04:59:41.703Z,10.30
2019-03-15T05:04:49.276Z,10.40
2019-03-15T05:09:56.412Z,10.30
2019-03-15T05:15:03.697Z,10.40
2019-03-15T05:20:09.995Z,10.40
2019-03-15T05:25:16.705Z,10.40
2019-03-15T05:30:23.800Z,10.40
2019-03-15T05:35:31.085Z,10.50
2019-03-15T05:40:37.879Z,10.50
2019-03-15T05:45:44.117Z,10.30
2019-03-15T05:50:51.729Z,10.00
2019-03-15T05:55:59.080Z,10.00
2019-03-15T06:01:06.353Z,9.90
2019-03-15T06:06:13.032Z,10.00
2019-03-15T06:11:20.593Z,10.10
2019-03-15T06:16:27.024Z,9.90
2019-03-15T06:21:33.953Z,9.80
2019-03-15T06:26:41.711Z,9.90
2019-03-15T06:31:47.612Z,9.90
2019-03-15T06:36:53.780Z,10.10
2019-03-15T06:42:01.211Z,10.30
2019-03-15T06:47:09.144Z,10.60
2019-03-15T06:52:15.200Z,10.80
2019-03-15T06:57:22.954Z,11.00
2019-03-15T07:02:30.289Z,11.10
2019-03-15T07:07:36.311Z,11.20
2019-03-15T07:12:43.808Z,11.40
2019-03-15T07:17:49.782Z,11.50
2019-03-15T07:22:57.294Z,11.70
2019-03-15T07:28:03.362Z,11.80
2019-03-15T07:33:11.185Z,11.90
2019-03-15T07:38:18.893Z,12.00
2019-03-15T07:43:26.227Z,12.20
2019-03-15T07:48:33.506Z,12.50
2019-03-15T07:53:41.206Z,12.70
2019-03-15T07:58:48.541Z,13.00
2019-03-15T08:03:54.547Z,13.10
2019-03-15T08:09:00.441Z,13.00
2019-03-15T08:14:09.263Z,13.10
2019-03-15T08:19:16.814Z,13.30
2019-03-15T08:24:23.788Z,13.20
2019-03-15T08:29:31.418Z,13.50
2019-03-15T08:34:39.083Z,13.60
2019-03-15T08:39:45.200Z,13.90
2019-03-15T08:44:52.164Z,13.90
2019-03-15T08:49:59.738Z,14.00
2019-03-15T08:55:07.540Z,14.10
2019-03-15T09:00:13.913Z,14.50
2019-03-15T09:05:21.631Z,14.60
2019-03-15T09:10:27.735Z,14.80
2019-03-15T09:15:33.973Z,14.90
2019-03-15T09:20:41.681Z,15.00
2019-03-15T09:25:49.216Z,15.60
2019-03-15T09:30:56.707Z,15.50
2019-03-15T09:36:02.801Z,15.30
2019-03-15T09:41:08.871Z,15.70
2019-03-15T09:46:15.342Z,15.80
2019-03-15T09:51:22.702Z,15.80
2019-03-15T09:56:30.155Z,16.00
2019-03-15T10:01:37.710Z,16.50
2019-03-15T10:06:43.846Z,16.40
2019-03-15T10:11:51.427Z,16.70
2019-03-15T10:16:59.155Z,16.80
2019-03-15T10:22:06.974Z,17.30
2019-03-15T10:27:14.511Z,17.60
2019-03-15T10:32:21.831Z,17.80
2019-03-15T10:37:27.757Z,17.90
2019-03-15T10:42:35.090Z,18.50
2019-03-15T10:47:42.832Z,18.40
2019-03-15T10:52:53.517Z,18.60
2019-03-15T10:57:58.552Z,19.10
2019-03-15T11:03:04.572Z,19.80
2019-03-15T11:08:10.544Z,20.30
2019-03-15T11:13:16.457Z,19.80
2019-03-15T11:18:23.597Z,19.70
2019-03-15T11:23:31.653Z,19.70
2019-03-15T11:28:39.180Z,20.00
2019-03-15T11:33:47.464Z,19.60
2019-03-15T11:38:53.643Z,19.90
2019-03-15T11:44:00.905Z,20.00
2019-03-15T11:49:08.485Z,20.10
2019-03-15T11:54:14.807Z,19.60
2019-03-15T11:59:22.736Z,20.00
2019-03-15T12:04:30.335Z,19.50
2019-03-15T12:09:40.778Z,19.80
2019-03-15T12:14:47.656Z,19.90
2019-03-15T12:19:53.844Z,19.50
2019-03-15T12:24:59.877Z,19.80
2019-03-15T12:30:07.066Z,19.80
2019-03-15T12:35:14.287Z,20.40
2019-03-15T12:40:21.773Z,20.80
2019-03-15T12:45:29.755Z,20.40
2019-03-15T12:50:37.345Z,20.70
2019-03-15T12:55:45.449Z,20.20
2019-03-15T13:00:52.879Z,20.40
2019-03-15T13:06:00.689Z,20.60
2019-03-15T13:11:08.951Z,20.80
2019-03-15T13:16:15.433Z,21.00
2019-03-15T13:21:23.204Z,21.90
2019-03-15T13:26:31.157Z,21.90
2019-03-15T13:31:39.034Z,21.60
2019-03-15T13:36:45.358Z,22.20
2019-03-15T13:41:53.151Z,22.40
2019-03-15T13:47:00.695Z,22.40
2019-03-15T13:52:07.165Z,22.80
2019-03-15T13:57:21.069Z,23.50
2019-03-15T14:02:22.504Z,23.10
2019-03-15T14:07:29.979Z,23.60
2019-03-15T14:12:36.336Z,23.30
2019-03-15T14:17:42.232Z,23.60
2019-03-15T14:22:49.872Z,23.30
2019-03-15T14:27:56.083Z,23.10
2019-03-15T14:33:02.511Z,23.10
2019-03-15T14:38:10.368Z,23.40
2019-03-15T14:43:16.390Z,23.70
2019-03-15T14:48:23.670Z,23.50
2019-03-15T14:53:31.017Z,23.80
2019-03-15T14:58:38.696Z,23.60
2019-03-15T15:03:44.708Z,23.30
2019-03-15T15:08:52.112Z,23.40
2019-03-15T15:13:59.998Z,23.30
2019-03-15T15:19:07.065Z,23.20
2019-03-15T15:24:13.807Z,23.50
2019-03-15T15:29:22.173Z,23.60
2019-03-15T15:34:29.906Z,23.80
2019-03-15T15:39:36.660Z,23.80
2019-03-15T15:44:43.784Z,23.10
2019-03-15T15:49:50.634Z,23.20
2019-03-15T15:54:58.179Z,22.70
2019-03-15T16:00:04.799Z,22.60
2019-03-15T16:05:11.638Z,22.80
2019-03-15T16:10:19.148Z,22.20
2019-03-15T16:15:25.154Z,21.70
2019-03-15T16:20:32.020Z,21.60
2019-03-15T16:25:40.120Z,21.20
2019-03-15T16:30:47.629Z,21.00
2019-03-15T16:35:54.793Z,20.40
2019-03-15T16:41:01.562Z,19.60
2019-03-15T16:46:09.268Z,19.20
2019-03-15T16:51:19.710Z,19.50
2019-03-15T16:56:23.634Z,19.30
2019-03-15T17:01:30.542Z,19.00
2019-03-15T17:06:38.121Z,18.60
2019-03-15T17:11:44.037Z,18.30
2019-03-15T17:16:51.255Z,18.00
2019-03-15T17:21:58.976Z,17.40
2019-03-15T17:27:05.013Z,16.90
2019-03-15T17:32:11.068Z,16.60
2019-03-15T17:37:18.957Z,16.30
2019-03-15T17:42:26.317Z,16.00
2019-03-15T17:47:33.450Z,16.00
2019-03-15T17:52:40.497Z,15.90
2019-03-15T17:57:48.089Z,15.70
2019-03-15T18:02:55.044Z,15.70
2019-03-15T18:08:02.741Z,15.60
2019-03-15T18:13:10.349Z,15.40
2019-03-15T18:18:16.676Z,15.30
2019-03-15T18:23:23.828Z,15.20
2019-03-15T18:28:30.428Z,15.20
2019-03-15T18:33:38.157Z,15.20
2019-03-15T18:38:44.421Z,15.10
2019-03-15T18:43:50.380Z,15.00
2019-03-15T18:48:57.724Z,14.90
2019-03-15T18:54:16.748Z,15.00
2019-03-15T18:59:12.814Z,14.60
2019-03-15T19:04:20.666Z,14.00
2019-03-15T19:09:28.254Z,13.70
2019-03-15T19:14:35.686Z,13.60
2019-03-15T19:19:41.561Z,13.60
2019-03-15T19:24:47.714Z,13.50
2019-03-15T19:29:54.559Z,13.30
2019-03-15T19:35:01.482Z,13.20
2019-03-15T19:40:10.552Z,13.10
2019-03-15T19:45:17.511Z,13.00
2019-03-15T19:50:23.586Z,12.80
2019-03-15T19:55:31.160Z,12.70
2019-03-15T20:00:37.494Z,12.60
2019-03-15T20:05:43.634Z,12.60
2019-03-15T20:10:51.527Z,12.60
2019-03-15T20:15:59.056Z,12.50
2019-03-15T20:21:05.642Z,12.20
2019-03-15T20:26:11.811Z,12.10
2019-03-15T20:31:19.439Z,12.10
2019-03-15T20:36:27.717Z,12.00
2019-03-15T20:41:35.197Z,11.90
2019-03-15T20:46:42.731Z,11.90
2019-03-15T20:51:48.881Z,11.80
2019-03-15T20:56:55.193Z,11.80
2019-03-15T21:02:01.361Z,11.70
2019-03-15T21:07:09.057Z,11.70
2019-03-15T21:12:14.997Z,11.50
2019-03-15T21:17:22.258Z,11.30
2019-03-15T21:22:29.966Z,11.10
2019-03-15T21:27:52.498Z,11.10
2019-03-15T21:32:46.493Z,11.20
2019-03-15T21:37:53.872Z,11.20
2019-03-15T21:43:00.579Z,11.00
2019-03-15T21:48:08.263Z,10.80
2019-03-15T21:53:14.245Z,10.90
2019-03-15T21:58:20.546Z,10.90
2019-03-15T22:03:27.468Z,10.80
2019-03-15T22:08:33.886Z,10.70
2019-03-15T22:13:41.155Z,10.70
2019-03-15T22:18:48.961Z,10.80
2019-03-15T22:23:54.900Z,10.70
2019-03-15T22:29:01.303Z,10.60
2019-03-15T22:34:08.841Z,10.70
2019-03-15T22:39:14.963Z,10.70
2019-03-15T22:44:22.739Z,10.80
2019-03-15T22:49:28.762Z,10.80
2019-03-15T22:54:36.203Z,10.90
2019-03-15T22:59:42.986Z,10.60
2019-03-15T23:04:49.203Z,10.70
2019-03-15T23:09:56.374Z,10.80
2019-03-15T23:15:03.983Z,10.70
2019-03-15T23:20:10.699Z,10.60
2019-03-15T23:25:18.295Z,10.50
2019-03-15T23:30:24.337Z,10.60
2019-03-15T23:35:30.279Z,10.60
2019-03-15T23:40:36.404Z,10.50
2019-03-15T23:45:43.119Z,10.60
2019-03-15T23:50:50.569Z,10.40
2019-03-15T23:55:58.118Z,10.40
